Terminal Aerodrome Forecast
Issued by NWS Louisville, KY

Home | Current Version | Previous Version | Text Only | Print | Product List | Glossary On
Versions: 1 2 3 4 5 6 7 8 9 10 11 12 13 14 15 16 17
054
FTUS43 KLMK 271512 AAA
TAFBWG
TAF AMD
KBWG 271512Z 2715/2812 19011KT P6SM VCTS SCT040CB BKN250
     FM271800 18011KT P6SM SCT040 BKN250
     FM272000 19010KT P6SM -SHRA VCTS BKN035CB
     FM280200 VRB04KT P6SM SCT050 BKN150=

USA.gov is the U.S. government's official web portal to all federal, state and local government web resources and services.